Time;durP1;ratioP1;P1;durP2;ratioP2;P2;SDS_P1;SDS_P2;PMS_P1;PMS_P2;Temp;Humidity;BMP_temperature;BMP_pressure;BME280_temperature;BME280_humidity;BME280_pressure;Samples;Min_cycle;Max_cycle;Signal;HPM_P1;HPM_P2
2022/09/13 00:00:29;;;;;;;3.10;2.73;;;;;;;15.37;nan;100084.63;4968682;28;20086;-64
2022/09/13 00:02:54;;;;;;;3.00;2.50;;;;;;;15.33;nan;100080.75;4971479;28;20333;-64
2022/09/13 00:05:19;;;;;;;4.03;3.28;;;;;;;15.31;nan;100079.28;4970862;28;20481;-64
2022/09/13 00:07:44;;;;;;;3.70;3.25;;;;;;;15.28;nan;100073.31;4971199;28;20031;-64
2022/09/13 00:10:10;;;;;;;3.72;3.00;;;;;;;15.24;nan;100063.25;4969854;28;20047;-65
2022/09/13 00:12:35;;;;;;;3.73;3.07;;;;;;;15.22;nan;100055.44;4971300;28;20085;-64
2022/09/13 00:15:00;;;;;;;4.30;3.23;;;;;;;15.18;nan;100050.69;4971138;28;20281;-64
2022/09/13 00:17:26;;;;;;;3.63;2.75;;;;;;;15.13;nan;100031.81;4971446;28;20285;-64
2022/09/13 00:19:51;;;;;;;3.30;2.65;;;;;;;15.08;nan;100037.72;4970843;28;20434;-64
2022/09/13 00:22:16;;;;;;;3.85;2.80;;;;;;;15.00;nan;100032.53;4970375;28;20377;-64
2022/09/13 00:24:42;;;;;;;3.40;2.70;;;;;;;14.90;nan;100040.88;4971100;28;20126;-64
2022/09/13 00:27:07;;;;;;;2.95;2.50;;;;;;;14.82;nan;100046.31;4970410;28;20500;-65
2022/09/13 00:29:32;;;;;;;3.20;2.67;;;;;;;14.76;nan;100039.91;4970713;28;20030;-65
2022/09/13 00:31:58;;;;;;;2.55;2.13;;;;;;;14.71;nan;100036.19;4965993;28;20235;-65
2022/09/13 00:34:23;;;;;;;3.28;2.63;;;;;;;14.67;nan;100040.25;4969151;28;20339;-65
2022/09/13 00:36:48;;;;;;;3.22;2.45;;;;;;;14.63;nan;100035.31;4968103;28;20058;-66
2022/09/13 00:39:13;;;;;;;4.20;2.20;;;;;;;14.63;nan;100019.34;4970501;28;20023;-67
2022/09/13 00:41:39;;;;;;;2.67;2.30;;;;;;;14.62;nan;100036.31;4967744;28;20696;-66
2022/09/13 00:44:43;;;;;;;3.13;2.30;;;;;;;14.57;nan;100038.72;4970534;28;20093;-66
2022/09/13 00:47:10;;;;;;;2.38;2.08;;;;;;;14.54;nan;100036.44;4968644;28;20046;-67
2022/09/13 00:49:39;;;;;;;2.30;2.10;;;;;;;14.58;nan;100029.72;4970437;28;20038;-66
2022/09/13 00:52:09;;;;;;;3.10;2.40;;;;;;;14.64;nan;100038.78;4969706;28;20035;-67
2022/09/13 00:54:50;;;;;;;2.85;2.40;;;;;;;14.71;nan;100034.34;4970267;28;20057;-66
2022/09/13 00:57:18;;;;;;;3.67;2.50;;;;;;;14.75;nan;100035.59;4970087;28;20046;-66
2022/09/13 01:00:11;;;;;;;3.70;2.63;;;;;;;14.80;nan;100029.69;4966664;28;20023;-66
2022/09/13 01:02:40;;;;;;;2.63;2.40;;;;;;;14.83;nan;100035.47;4965091;28;20066;-66
2022/09/13 01:05:06;;;;;;;4.68;2.50;;;;;;;14.91;nan;100020.38;4968403;28;20550;-66
2022/09/13 01:07:32;;;;;;;3.00;2.47;;;;;;;14.91;nan;100023.88;4968750;28;20027;-66
2022/09/13 01:09:57;;;;;;;4.15;2.42;;;;;;;14.90;nan;100024.88;4969904;28;20035;-66
2022/09/13 01:12:33;;;;;;;2.95;2.30;;;;;;;14.89;nan;100036.53;4967732;28;20031;-67
2022/09/13 01:15:02;;;;;;;3.67;2.80;;;;;;;14.87;nan;100038.56;4970025;28;20110;-67
2022/09/13 01:17:29;;;;;;;3.25;2.60;;;;;;;14.91;nan;100033.69;4969642;28;20039;-66
2022/09/13 01:19:55;;;;;;;5.43;2.88;;;;;;;15.02;nan;100022.53;4969241;28;20027;-66
2022/09/13 01:22:36;;;;;;;3.47;2.97;;;;;;;15.14;nan;100009.50;4967408;28;20523;-66
2022/09/13 01:25:27;;;;;;;3.58;2.88;;;;;;;15.12;nan;100008.88;4969868;28;20090;-66
2022/09/13 01:27:58;;;;;;;4.40;2.70;;;;;;;15.10;nan;100017.03;4970022;28;20496;-66
2022/09/13 01:30:34;;;;;;;2.42;2.08;;;;;;;15.03;nan;100018.84;4969164;28;20679;-67
2022/09/13 01:33:09;;;;;;;2.50;2.00;;;;;;;14.93;nan;100029.00;4969721;28;20039;-66
2022/09/13 01:35:54;;;;;;;2.47;2.00;;;;;;;14.82;nan;100027.66;4969719;28;20050;-66
2022/09/13 01:38:25;;;;;;;4.40;2.80;;;;;;;14.79;nan;100028.06;4976703;28;20057;-67
2022/09/13 01:41:07;;;;;;;2.75;2.30;;;;;;;14.76;nan;100031.13;4969655;28;20093;-66
2022/09/13 01:44:02;;;;;;;3.58;2.20;;;;;;;14.68;nan;100039.22;4966876;28;20492;-67
2022/09/13 01:46:44;;;;;;;2.13;1.90;;;;;;;14.59;nan;100031.38;4963317;28;20405;-66
2022/09/13 01:49:26;;;;;;;2.53;2.00;;;;;;;14.54;nan;100025.81;4970415;28;20503;-66
2022/09/13 01:52:01;;;;;;;3.42;1.90;;;;;;;14.48;nan;100026.50;4969098;28;20064;-66
2022/09/13 01:54:38;;;;;;;2.95;1.85;;;;;;;14.44;nan;100027.91;4969665;28;20108;-66
2022/09/13 01:57:06;;;;;;;2.85;1.83;;;;;;;14.39;nan;100033.78;4969226;28;20461;-66
2022/09/13 01:59:40;;;;;;;2.15;1.70;;;;;;;14.35;nan;100032.53;4972826;28;20039;-66
2022/09/13 02:02:21;;;;;;;2.17;1.65;;;;;;;14.31;nan;100038.41;4969177;28;20039;-66
2022/09/13 02:04:53;;;;;;;3.47;1.50;;;;;;;14.24;nan;100035.69;4969331;28;20030;-66
2022/09/13 02:07:23;;;;;;;2.00;1.50;;;;;;;14.18;nan;100026.63;4962303;28;20062;-67
2022/09/13 02:09:57;;;;;;;2.80;2.00;;;;;;;14.14;nan;100030.66;4969360;28;20568;-66
2022/09/13 02:12:26;;;;;;;2.28;1.95;;;;;;;14.10;nan;100026.72;4968855;28;20096;-66
2022/09/13 02:15:03;;;;;;;2.30;2.00;;;;;;;14.03;nan;100029.28;4969022;28;20447;-66
2022/09/13 02:17:36;;;;;;;3.90;2.08;;;;;;;14.00;nan;100028.84;4969163;28;20114;-67
2022/09/13 02:20:08;;;;;;;3.38;2.78;;;;;;;13.97;nan;100026.56;4966971;28;20134;-67
2022/09/13 02:22:41;;;;;;;3.40;3.00;;;;;;;13.96;nan;100032.88;4968783;28;20114;-67
2022/09/13 02:25:11;;;;;;;4.45;2.55;;;;;;;13.89;nan;100040.78;4968846;28;20109;-66
2022/09/13 02:27:40;;;;;;;3.15;2.70;;;;;;;13.83;nan;100051.34;4969257;28;20062;-66
2022/09/13 02:30:09;;;;;;;3.65;3.20;;;;;;;13.76;nan;100060.03;4967751;28;20035;-67
2022/09/13 02:32:43;;;;;;;3.00;2.45;;;;;;;13.69;nan;100072.41;4968735;28;20033;-66
2022/09/13 02:35:18;;;;;;;2.83;2.10;;;;;;;13.65;nan;100073.78;4963924;28;20479;-66
2022/09/13 02:37:50;;;;;;;3.60;3.10;;;;;;;13.66;nan;100070.13;4968962;28;20035;-66
2022/09/13 02:40:21;;;;;;;4.55;3.47;;;;;;;13.69;nan;100071.59;4967509;28;20038;-66
2022/09/13 02:42:53;;;;;;;5.38;3.45;;;;;;;13.67;nan;100077.06;4968124;28;20101;-66
2022/09/13 02:45:26;;;;;;;3.88;3.20;;;;;;;13.68;nan;100070.78;4965930;28;20471;-66
2022/09/13 02:48:03;;;;;;;4.22;3.20;;;;;;;13.68;nan;100084.06;4968901;28;20496;-66
2022/09/13 02:50:58;;;;;;;3.47;3.00;;;;;;;13.67;nan;100086.88;4966676;28;20043;-66
2022/09/13 02:53:33;;;;;;;3.78;3.05;;;;;;;13.64;nan;100080.09;4969082;28;20034;-66
2022/09/13 02:56:05;;;;;;;5.05;3.20;;;;;;;13.64;nan;100077.44;4966635;28;20041;-66
2022/09/13 02:58:40;;;;;;;4.35;3.80;;;;;;;13.68;nan;100065.47;4967511;28;20035;-66
2022/09/13 03:01:05;;;;;;;5.03;3.80;;;;;;;13.69;nan;100067.09;4968055;28;20039;-67
2022/09/13 03:03:31;;;;;;;4.65;3.75;;;;;;;13.69;nan;100080.38;4969178;28;20061;-65
2022/09/13 03:05:56;;;;;;;3.65;2.90;;;;;;;13.65;nan;100073.78;4967913;28;20041;-65
2022/09/13 03:08:23;;;;;;;5.60;3.95;;;;;;;13.70;nan;100060.75;4968511;28;20568;-66
2022/09/13 03:11:14;;;;;;;4.82;3.70;;;;;;;13.74;nan;100058.56;4967210;28;20045;-66
2022/09/13 03:14:07;;;;;;;4.25;3.65;;;;;;;13.77;nan;100064.34;4969202;28;20500;-66
2022/09/13 03:16:51;;;;;;;5.32;3.00;;;;;;;13.78;nan;100063.34;4968423;28;20038;-66
2022/09/13 03:20:01;;;;;;;3.92;3.20;;;;;;;13.83;nan;100056.66;4968172;28;20451;-67
2022/09/13 03:22:43;;;;;;;3.20;2.63;;;;;;;13.86;nan;100065.06;4950432;28;20125;-67
2022/09/13 03:25:15;;;;;;;4.38;2.88;;;;;;;13.85;nan;100058.13;4965760;28;20062;-65
2022/09/13 03:27:59;;;;;;;3.35;2.50;;;;;;;13.85;nan;100036.84;4968705;28;20039;-67
2022/09/13 03:30:25;;;;;;;6.00;3.17;;;;;;;13.91;nan;100029.97;4967857;28;20074;-67
2022/09/13 03:33:16;;;;;;;3.22;2.80;;;;;;;13.95;nan;100023.28;4969061;28;20121;-66
2022/09/13 03:35:51;;;;;;;3.00;2.70;;;;;;;13.98;nan;100010.44;4969492;28;20031;-66
2022/09/13 03:38:32;;;;;;;2.88;2.40;;;;;;;14.03;nan;100017.84;4968546;28;20027;-66
2022/09/13 03:41:03;;;;;;;3.03;2.55;;;;;;;14.02;nan;100002.91;4968753;28;20038;-66
2022/09/13 03:43:35;;;;;;;;;;;;;;;14.01;nan;100001.25;4971015;28;20540;-66
2022/09/13 03:46:14;;;;;;;2.90;2.35;;;;;;;14.03;nan;99996.56;4973129;28;20021;-66
2022/09/13 03:48:41;;;;;;;2.88;2.40;;;;;;;14.05;nan;99997.22;4972078;28;20034;-66
2022/09/13 03:51:08;;;;;;;4.53;2.90;;;;;;;14.06;nan;99998.84;4976748;28;20066;-66
2022/09/13 03:53:38;;;;;;;3.83;2.80;;;;;;;14.13;nan;100002.41;4972198;28;20129;-66
2022/09/13 03:56:17;;;;;;;3.80;2.58;;;;;;;14.20;nan;100005.97;4964281;28;20126;-66
2022/09/13 03:58:43;;;;;;;3.08;2.30;;;;;;;14.24;nan;100009.91;4969799;28;20118;-66
2022/09/13 04:01:09;;;;;;;3.25;2.60;;;;;;;14.29;nan;100012.00;4974822;28;20129;-65
2022/09/13 04:03:35;;;;;;;4.50;3.13;;;;;;;14.34;nan;100008.78;4970838;28;20077;-65
2022/09/13 04:06:00;;;;;;;4.68;2.97;;;;;;;14.43;nan;100012.97;4973615;28;20045;-66
2022/09/13 04:08:26;;;;;;;3.27;2.63;;;;;;;14.50;nan;100007.72;4972381;28;20034;-66
2022/09/13 04:10:52;;;;;;;4.23;2.60;;;;;;;14.53;nan;100010.81;4974080;28;21039;-66
2022/09/13 04:13:17;;;;;;;2.90;2.30;;;;;;;14.57;nan;100019.28;4972697;28;20278;-66
2022/09/13 04:15:43;;;;;;;3.05;2.35;;;;;;;14.59;nan;100006.59;4970836;28;20027;-67
2022/09/13 04:18:09;;;;;;;2.50;2.20;;;;;;;14.60;nan;100022.38;4970906;28;20041;-65
2022/09/13 04:20:34;;;;;;;2.40;2.00;;;;;;;14.61;nan;100020.50;4971069;28;20627;-66
2022/09/13 04:23:00;;;;;;;2.90;2.05;;;;;;;14.67;nan;100033.06;4977921;28;20047;-66
2022/09/13 04:25:25;;;;;;;2.92;2.30;;;;;;;14.69;nan;100030.22;4970426;28;20031;-66
2022/09/13 04:27:54;;;;;;;3.83;2.30;;;;;;;14.70;nan;100027.38;4971593;28;20195;-66
2022/09/13 04:30:20;;;;;;;3.30;2.40;;;;;;;14.70;nan;100026.53;4970299;28;20038;-67
2022/09/13 04:32:46;;;;;;;3.53;2.80;;;;;;;14.70;nan;100019.38;4970105;28;20030;-66
2022/09/13 04:35:11;;;;;;;4.20;2.80;;;;;;;14.71;nan;100010.41;4971228;28;20439;-67
2022/09/13 04:37:37;;;;;;;3.65;2.83;;;;;;;14.68;nan;100016.06;4966724;28;20045;-66
2022/09/13 04:40:04;;;;;;;3.47;3.03;;;;;;;14.65;nan;100014.63;4970436;28;20090;-66
2022/09/13 04:42:29;;;;;;;4.53;2.67;;;;;;;14.65;nan;100014.63;4969716;28;20142;-67
2022/09/13 04:44:54;;;;;;;4.03;2.83;;;;;;;14.63;nan;100019.34;4970545;28;20200;-66
2022/09/13 04:47:20;;;;;;;4.97;2.67;;;;;;;14.64;nan;100023.63;4968440;28;20294;-66
2022/09/13 04:49:47;;;;;;;3.55;2.40;;;;;;;14.61;nan;100021.38;4969243;28;20035;-66
2022/09/13 04:52:13;;;;;;;3.33;2.63;;;;;;;14.57;nan;100036.06;4969477;28;20129;-66
2022/09/13 04:54:38;;;;;;;3.30;2.50;;;;;;;14.55;nan;100031.94;4969976;28;20126;-67
2022/09/13 04:57:03;;;;;;;3.42;2.83;;;;;;;14.51;nan;100025.31;4970347;28;20043;-66
2022/09/13 04:59:28;;;;;;;4.00;3.10;;;;;;;14.64;nan;100020.97;4966242;28;20852;-66
2022/09/13 05:01:54;;;;;;;4.00;3.30;;;;;;;14.60;nan;100019.69;4969606;28;20031;-66
2022/09/13 05:04:20;;;;;;;3.75;3.35;;;;;;;14.58;nan;100021.72;4968134;28;20039;-65
2022/09/13 05:06:46;;;;;;;3.17;2.67;;;;;;;14.56;nan;100029.09;4970226;28;20049;-67
2022/09/13 05:09:13;;;;;;;3.22;2.40;;;;;;;14.55;nan;100037.25;4963910;28;20074;-67
2022/09/13 05:11:38;;;;;;;3.03;2.30;;;;;;;14.49;nan;100038.81;4970266;28;20185;-67
2022/09/13 05:14:04;;;;;;;3.75;2.22;;;;;;;14.45;nan;100037.53;4969165;28;20613;-67
2022/09/13 05:16:31;;;;;;;3.83;2.63;;;;;;;14.44;nan;100033.22;4967454;28;20133;-67
2022/09/13 05:18:57;;;;;;;5.38;2.50;;;;;;;14.44;nan;100039.38;4968137;28;20031;-66
2022/09/13 05:21:23;;;;;;;2.58;2.00;;;;;;;14.48;nan;100050.47;4970229;28;20073;-66
2022/09/13 05:23:53;;;;;;;5.10;3.03;;;;;;;14.52;nan;100056.25;4968071;28;20069;-66
2022/09/13 05:26:19;;;;;;;3.78;2.65;;;;;;;14.54;nan;100055.06;4969706;28;20063;-66
2022/09/13 05:28:44;;;;;;;6.82;3.03;;;;;;;14.61;nan;100053.28;4966964;28;20039;-66
2022/09/13 05:31:15;;;;;;;4.65;2.80;;;;;;;14.68;nan;100052.53;4970217;28;20089;-67
2022/09/13 05:33:40;;;;;;;3.10;2.53;;;;;;;14.74;nan;100051.78;4969076;28;20117;-66
2022/09/13 05:36:06;;;;;;;3.60;2.75;;;;;;;14.77;nan;100057.53;4969646;28;20039;-68
2022/09/13 05:38:32;;;;;;;3.65;2.30;;;;;;;14.81;nan;100055.31;4964386;28;20039;-66
2022/09/13 05:41:00;;;;;;;3.42;2.97;;;;;;;14.85;nan;100072.56;4967416;28;20034;-66
2022/09/13 05:43:28;;;;;;;3.65;2.80;;;;;;;14.94;nan;100071.38;4968607;28;20039;-67
2022/09/13 05:46:06;;;;;;;4.63;2.63;;;;;;;15.02;nan;100070.44;4969942;28;20100;-66
2022/09/13 05:48:33;;;;;;;4.40;2.72;;;;;;;15.11;nan;100063.97;4969659;28;20070;-67
2022/09/13 05:51:04;;;;;;;4.53;3.20;;;;;;;15.20;nan;100060.13;4968518;28;20315;-66
2022/09/13 05:53:30;;;;;;;3.30;2.53;;;;;;;15.30;nan;100062.47;4965367;28;20042;-67
2022/09/13 05:55:56;;;;;;;5.70;3.28;;;;;;;15.38;nan;100056.19;4971512;28;20501;-66
2022/09/13 05:58:22;;;;;;;4.80;3.42;;;;;;;15.44;nan;100053.53;4969267;28;20038;-66
2022/09/13 06:00:54;;;;;;;5.07;3.50;;;;;;;15.49;nan;100056.47;4967655;28;20086;-67
2022/09/13 06:03:20;;;;;;;3.88;2.65;;;;;;;15.56;nan;100072.47;4969474;28;20034;-67
2022/09/13 06:05:45;;;;;;;5.10;2.65;;;;;;;15.64;nan;100066.19;4967189;28;20047;-66
2022/09/13 06:08:10;;;;;;;3.30;2.40;;;;;;;15.72;nan;100060.72;4968799;28;20042;-67
2022/09/13 06:10:36;;;;;;;3.00;2.28;;;;;;;15.82;nan;100063.84;4969270;28;20043;-66
2022/09/13 06:13:01;;;;;;;3.43;2.30;;;;;;;15.94;nan;100064.09;4969273;28;20046;-66
2022/09/13 06:15:26;;;;;;;4.03;2.40;;;;;;;16.08;nan;100046.31;4969229;28;20362;-66
2022/09/13 06:17:51;;;;;;;3.13;2.40;;;;;;;16.23;nan;100040.81;4969614;28;20631;-66
2022/09/13 06:20:17;;;;;;;3.53;2.47;;;;;;;16.34;nan;100046.41;4968750;28;20290;-67
2022/09/13 06:22:42;;;;;;;4.77;2.77;;;;;;;16.42;nan;100057.91;4968742;28;20311;-66
2022/09/13 06:25:08;;;;;;;3.17;2.60;;;;;;;16.52;nan;100055.69;4969269;28;20811;-66
2022/09/13 06:27:33;;;;;;;3.38;2.47;;;;;;;16.61;nan;100057.13;4969004;28;20369;-65
2022/09/13 06:29:58;;;;;;;3.35;2.70;;;;;;;16.68;nan;100049.13;4968436;28;20031;-66
2022/09/13 06:32:24;;;;;;;3.60;2.63;;;;;;;16.75;nan;100050.78;4969115;28;20038;-67
2022/09/13 06:34:49;;;;;;;4.97;2.53;;;;;;;16.83;nan;100048.97;4966217;28;20682;-66
2022/09/13 06:37:17;;;;;;;3.42;2.75;;;;;;;16.88;nan;100043.88;4969468;28;20394;-69
2022/09/13 06:39:42;;;;;;;4.72;2.70;;;;;;;16.95;nan;100045.50;4967945;28;20034;-67
2022/09/13 06:42:08;;;;;;;;;;;;;;;17.01;nan;100048.38;4966657;28;20039;-67
2022/09/13 06:44:33;;;;;;;4.20;3.05;;;;;;;17.02;nan;100056.19;4968868;28;20001;-67
2022/09/13 06:46:59;;;;;;;3.50;2.80;;;;;;;17.07;nan;100050.22;4967100;28;20397;-67
2022/09/13 06:49:24;;;;;;;3.67;2.45;;;;;;;17.12;nan;100040.56;4968798;28;20043;-66
2022/09/13 06:51:49;;;;;;;3.73;2.77;;;;;;;17.19;nan;100045.91;4961647;28;20042;-67
2022/09/13 06:54:14;;;;;;;4.63;3.57;;;;;;;17.10;nan;100039.94;4968896;28;20274;-67
2022/09/13 06:56:40;;;;;;;3.70;3.10;;;;;;;17.07;nan;100053.72;4967024;28;20787;-67
2022/09/13 06:59:07;;;;;;;3.83;2.60;;;;;;;17.07;nan;100064.41;4967784;28;20282;-67
2022/09/13 07:01:38;;;;;;;4.55;2.67;;;;;;;17.16;nan;100070.34;4964130;28;20968;-67
2022/09/13 07:04:06;;;;;;;4.20;2.40;;;;;;;17.36;nan;100067.69;4968535;28;20046;-68
2022/09/13 07:06:35;;;;;;;4.00;2.95;;;;;;;17.51;nan;100070.13;4966898;28;20046;-66
2022/09/13 07:09:02;;;;;;;3.83;3.17;;;;;;;17.54;nan;100067.88;4968874;28;20042;-67
2022/09/13 07:11:30;;;;;;;3.63;2.90;;;;;;;17.62;nan;100070.31;4966006;28;20503;-66
2022/09/13 07:13:57;;;;;;;3.53;2.60;;;;;;;17.76;nan;100068.41;4969032;28;20122;-67
2022/09/13 07:16:25;;;;;;;4.03;2.80;;;;;;;17.90;nan;100068.41;4966425;28;20508;-66
2022/09/13 07:18:59;;;;;;;3.20;2.38;;;;;;;18.01;nan;100068.56;4970194;28;20502;-67
2022/09/13 07:21:25;;;;;;;3.75;2.30;;;;;;;18.17;nan;100069.94;4971716;28;20039;-68
2022/09/13 07:23:52;;;;;;;3.45;2.50;;;;;;;18.27;nan;100077.50;4972062;28;20527;-67
2022/09/13 07:26:18;;;;;;;2.60;2.00;;;;;;;18.35;nan;100074.63;4982368;28;20086;-68
2022/09/13 07:28:46;;;;;;;3.53;2.65;;;;;;;18.37;nan;100074.38;4975731;28;20030;-68
2022/09/13 07:31:19;;;;;;;4.00;2.78;;;;;;;18.46;nan;100081.94;4972551;28;20097;-67
2022/09/13 07:33:45;;;;;;;3.50;2.58;;;;;;;18.60;nan;100081.88;4972149;28;20277;-68
2022/09/13 07:36:11;;;;;;;3.85;2.45;;;;;;;18.70;nan;100084.91;4971747;28;20646;-68
2022/09/13 07:38:39;;;;;;;3.50;2.90;;;;;;;18.93;nan;100084.38;4975206;28;20400;-67
2022/09/13 07:41:07;;;;;;;3.40;2.67;;;;;;;18.96;nan;100089.28;4970261;28;20033;-67
2022/09/13 07:43:33;;;;;;;3.95;3.10;;;;;;;18.98;nan;100089.88;4972068;28;20062;-68
2022/09/13 07:46:04;;;;;;;3.38;2.67;;;;;;;19.13;nan;100089.56;4972015;28;20479;-67
2022/09/13 07:48:31;;;;;;;5.15;3.15;;;;;;;19.23;nan;100089.88;4977274;28;20045;-68
2022/09/13 07:51:01;;;;;;;4.60;3.17;;;;;;;19.27;nan;100085.72;4971106;28;20443;-67
2022/09/13 07:53:27;;;;;;;4.50;3.30;;;;;;;19.23;nan;100081.03;4971320;28;20522;-67
2022/09/13 07:55:58;;;;;;;4.88;3.65;;;;;;;19.27;nan;100074.19;4971791;28;20027;-66
2022/09/13 07:58:23;;;;;;;3.45;2.75;;;;;;;19.38;nan;100069.94;4969166;28;20031;-66
2022/09/13 08:00:49;;;;;;;5.57;3.63;;;;;;;19.33;nan;100067.97;4968430;28;20031;-67
2022/09/13 08:03:14;;;;;;;4.28;3.30;;;;;;;19.23;nan;100054.22;4966366;28;20292;-67
2022/09/13 08:05:40;;;;;;;4.13;3.13;;;;;;;19.09;nan;100050.81;4969919;28;20042;-67
2022/09/13 08:08:06;;;;;;;3.33;2.80;;;;;;;19.04;nan;100046.16;4968895;28;20286;-67
2022/09/13 08:10:33;;;;;;;6.88;3.90;;;;;;;19.02;nan;100055.44;4971494;28;20727;-66
2022/09/13 08:12:59;;;;;;;3.92;3.30;;;;;;;19.05;nan;100049.66;4968038;28;20039;-68
2022/09/13 08:15:24;;;;;;;3.00;2.60;;;;;;;19.27;nan;100066.16;4962200;28;20078;-67
2022/09/13 08:17:49;;;;;;;3.88;2.80;;;;;;;19.45;nan;100073.41;4969463;28;20062;-67
2022/09/13 08:20:15;;;;;;;4.97;2.80;;;;;;;19.69;nan;100064.53;4970467;28;20034;-67
2022/09/13 08:22:40;;;;;;;3.13;2.00;;;;;;;20.01;nan;100056.31;4970879;28;20332;-68
2022/09/13 08:25:06;;;;;;;1.93;1.70;;;;;;;20.39;nan;100055.19;4970552;28;20125;-67
2022/09/13 08:27:31;;;;;;;2.85;2.15;;;;;;;20.85;nan;100039.47;4970885;28;20801;-67
2022/09/13 08:29:56;;;;;;;2.77;2.33;;;;;;;21.23;nan;100038.22;4963457;28;20049;-68
2022/09/13 08:32:21;;;;;;;2.80;2.15;;;;;;;21.58;nan;100041.72;4970498;28;20283;-67
2022/09/13 08:34:47;;;;;;;4.60;2.60;;;;;;;21.78;nan;100037.81;4963768;28;20558;-67
2022/09/13 08:37:12;;;;;;;3.87;2.60;;;;;;;21.93;nan;100034.63;4971374;28;20073;-68
2022/09/13 08:39:37;;;;;;;3.55;2.75;;;;;;;22.07;nan;100027.91;4969288;28;20846;-67
2022/09/13 08:42:18;;;;;;;2.80;2.20;;;;;;;22.24;nan;100018.03;4968246;28;20063;-67
2022/09/13 08:44:53;;;;;;;2.90;2.50;;;;;;;22.35;nan;100013.66;4961741;28;20282;-67
2022/09/13 08:47:27;;;;;;;4.50;2.65;;;;;;;22.45;nan;100011.16;4963993;28;20045;-69
2022/09/13 08:50:18;;;;;;;4.38;2.85;;;;;;;22.34;nan;100025.50;4973283;28;20416;-68
2022/09/13 08:52:46;;;;;;;5.13;2.95;;;;;;;22.17;nan;100028.13;4961640;28;20046;-67
2022/09/13 08:55:54;;;;;;;3.50;2.47;;;;;;;22.19;nan;100042.16;4973673;28;20114;-67
2022/09/13 08:58:40;;;;;;;5.38;3.35;;;;;;;22.16;nan;100047.19;4976739;28;20062;-66
2022/09/13 09:01:11;;;;;;;3.20;2.60;;;;;;;22.34;nan;100062.41;4976861;28;20121;-68
2022/09/13 09:03:55;;;;;;;4.85;3.00;;;;;;;22.48;nan;100067.25;4969332;28;20114;-67
2022/09/13 09:06:21;;;;;;;3.55;2.78;;;;;;;22.76;nan;100054.78;4972158;28;20039;-67
2022/09/13 09:08:53;;;;;;;5.50;3.00;;;;;;;23.06;nan;100053.69;4974854;28;20108;-69
2022/09/13 09:11:36;;;;;;;5.70;3.17;;;;;;;23.42;nan;100054.22;4976165;28;20059;-67
2022/09/13 09:14:19;;;;;;;4.57;3.47;;;;;;;23.86;nan;100049.72;4976825;28;20124;-67
2022/09/13 09:16:50;;;;;;;4.05;2.92;;;;;;;24.50;nan;100051.81;4965445;28;20037;-68
2022/09/13 09:19:33;;;;;;;4.85;3.30;;;;;;;25.10;nan;100043.63;4974309;28;20030;-68
2022/09/13 09:22:03;;;;;;;4.18;3.15;;;;;;;25.75;nan;100044.31;4970028;28;20679;-67
2022/09/13 09:24:35;;;;;;;3.40;2.70;;;;;;;26.41;nan;100057.25;4970407;28;20031;-67
2022/09/13 09:27:01;;;;;;;3.55;2.50;;;;;;;27.21;nan;100051.38;4971030;28;20035;-68
2022/09/13 09:29:31;;;;;;;3.97;2.28;;;;;;;27.60;nan;100037.16;4970145;28;20161;-67
2022/09/13 09:32:08;;;;;;;3.60;2.60;;;;;;;27.56;nan;100031.47;4971602;28;20034;-68
2022/09/13 09:34:52;;;;;;;5.00;3.63;;;;;;;27.27;nan;100036.72;4970102;28;20035;-68
2022/09/13 09:37:17;;;;;;;6.40;4.28;;;;;;;26.58;nan;100043.53;4970858;28;20129;-69
2022/09/13 09:39:43;;;;;;;4.33;2.97;;;;;;;26.45;nan;100042.91;4967297;28;20161;-67
2022/09/13 09:42:18;;;;;;;5.30;3.20;;;;;;;26.55;nan;100058.41;4969910;28;20092;-68
2022/09/13 09:45:33;;;;;;;3.90;3.10;;;;;;;26.48;nan;100063.25;4969797;28;20030;-68
2022/09/13 09:48:06;;;;;;;3.20;2.70;;;;;;;26.52;nan;100071.66;4977855;28;20133;-68
2022/09/13 09:50:39;;;;;;;6.47;3.13;;;;;;;26.37;nan;100069.75;4969269;28;20126;-67
2022/09/13 09:53:30;;;;;;;4.70;2.58;;;;;;;26.17;nan;100073.19;4969564;28;20057;-69
2022/09/13 09:56:14;;;;;;;3.40;2.42;;;;;;;26.12;nan;100073.19;4967576;28;20035;-68
2022/09/13 09:58:45;;;;;;;3.80;2.78;;;;;;;25.88;nan;100060.09;4967667;28;20041;-67
2022/09/13 10:01:27;;;;;;;3.58;2.22;;;;;;;25.95;nan;100063.38;4967081;28;20448;-67
2022/09/13 10:04:11;;;;;;;2.67;2.00;;;;;;;25.98;nan;100062.88;4969676;28;20054;-67
2022/09/13 10:06:39;;;;;;;7.75;3.20;;;;;;;25.82;nan;100055.72;4967714;28;20039;-68
2022/09/13 10:09:13;;;;;;;4.70;3.30;;;;;;;25.80;nan;100050.56;4969432;28;20042;-67
2022/09/13 10:11:56;;;;;;;3.72;2.88;;;;;;;26.01;nan;100053.38;4967074;28;20034;-68
2022/09/13 10:14:33;;;;;;;3.72;2.65;;;;;;;26.46;nan;100044.56;4966960;28;20420;-68
2022/09/13 10:17:04;;;;;;;2.85;2.38;;;;;;;26.86;nan;100045.69;4963711;28;20040;-68
2022/09/13 10:19:31;;;;;;;3.38;3.08;;;;;;;26.65;nan;100038.63;4968479;28;20519;-67
2022/09/13 10:22:14;;;;;;;4.38;3.20;;;;;;;26.59;nan;100020.72;4968806;28;20704;-67
2022/09/13 10:24:39;;;;;;;3.85;2.83;;;;;;;26.69;nan;100018.00;4969465;28;20491;-67
2022/09/13 10:27:21;;;;;;;5.25;2.80;;;;;;;26.73;nan;100024.53;4965589;28;20556;-68
2022/09/13 10:29:48;;;;;;;;;;;;;;;26.54;nan;100026.97;4969981;28;20085;-67
2022/09/13 10:32:15;;;;;;;6.43;3.50;;;;;;;26.35;nan;100040.19;4968913;28;19925;-67
2022/09/13 10:34:44;;;;;;;3.72;2.90;;;;;;;26.27;nan;100051.56;4968494;28;20034;-67
2022/09/13 10:37:30;;;;;;;3.55;3.08;;;;;;;26.18;nan;100058.59;4966943;28;20035;-67
2022/09/13 10:40:04;;;;;;;3.38;3.00;;;;;;;26.35;nan;100071.91;4969393;28;20503;-68
2022/09/13 10:42:30;;;;;;;4.82;2.88;;;;;;;26.30;nan;100064.56;4969841;28;20069;-68
2022/09/13 10:45:01;;;;;;;3.55;2.72;;;;;;;26.28;nan;100061.31;4970803;28;20027;-67
2022/09/13 10:47:33;;;;;;;2.45;2.17;;;;;;;26.30;nan;100058.34;4970692;28;20118;-69
2022/09/13 10:50:16;;;;;;;4.20;2.70;;;;;;;26.22;nan;100062.41;4971495;28;20088;-67
2022/09/13 10:52:46;;;;;;;3.45;2.70;;;;;;;26.09;nan;100062.88;4976417;28;20038;-67
2022/09/13 10:55:17;;;;;;;2.83;2.33;;;;;;;26.16;nan;100071.59;4963107;28;20043;-67
2022/09/13 10:57:47;;;;;;;3.25;2.30;;;;;;;25.97;nan;100065.81;4977780;28;20678;-67
2022/09/13 11:00:19;;;;;;;3.00;2.20;;;;;;;25.79;nan;100065.19;4965694;28;20093;-67
2022/09/13 11:03:15;;;;;;;3.67;2.35;;;;;;;25.56;nan;100050.19;4977548;28;20030;-68
2022/09/13 11:06:03;;;;;;;4.68;2.50;;;;;;;25.42;nan;100047.13;4969704;28;20035;-67
2022/09/13 11:08:33;;;;;;;2.70;2.00;;;;;;;25.38;nan;100050.59;4972497;28;20042;-68
2022/09/13 11:11:10;;;;;;;2.03;1.70;;;;;;;25.38;nan;100047.91;4968389;28;20496;-66
2022/09/13 11:14:14;;;;;;;3.88;2.20;;;;;;;25.38;nan;100059.53;4975385;28;20035;-66
2022/09/13 11:16:39;;;;;;;2.50;2.00;;;;;;;25.37;nan;100057.09;4945724;28;20061;-67
2022/09/13 11:19:16;;;;;;;3.60;2.10;;;;;;;25.50;nan;100064.75;4972802;28;20066;-68
2022/09/13 11:22:22;;;;;;;3.17;2.47;;;;;;;25.46;nan;100054.69;4972000;28;20285;-68
2022/09/13 11:25:16;;;;;;;2.50;2.13;;;;;;;25.27;nan;100046.22;4974078;28;20034;-68
2022/09/13 11:27:52;;;;;;;2.85;2.00;;;;;;;25.13;nan;100045.81;4968641;28;20042;-67
2022/09/13 11:30:21;;;;;;;2.47;1.58;;;;;;;24.87;nan;100044.81;4971202;28;20054;-67
2022/09/13 11:33:14;;;;;;;2.15;1.75;;;;;;;24.68;nan;100050.59;4974721;28;20035;-67
2022/09/13 11:35:54;;;;;;;2.15;1.65;;;;;;;24.65;nan;100045.72;4967824;28;20038;-66
2022/09/13 11:38:37;;;;;;;2.53;1.70;;;;;;;24.51;nan;100039.91;4972995;28;20037;-67
2022/09/13 11:41:30;;;;;;;4.47;2.50;;;;;;;24.35;nan;100021.88;4972067;28;20035;-68
2022/09/13 11:44:17;;;;;;;2.63;2.08;;;;;;;24.14;nan;100029.75;4972496;28;20039;-67
2022/09/13 11:46:51;;;;;;;2.78;1.92;;;;;;;23.70;nan;100023.56;4971297;28;20125;-67
2022/09/13 11:49:57;;;;;;;3.13;2.35;;;;;;;22.79;nan;100018.47;4972453;28;20121;-68
2022/09/13 11:53:07;;;;;;;2.55;1.65;;;;;;;22.26;nan;100015.94;4957249;28;20447;-67
2022/09/13 11:55:50;;;;;;;3.80;2.40;;;;;;;21.86;nan;100015.94;4966809;28;20127;-68
2022/09/13 11:58:24;;;;;;;2.97;2.20;;;;;;;21.68;nan;100000.75;4969019;28;20225;-67
2022/09/13 12:00:59;;;;;;;2.90;1.85;;;;;;;21.70;nan;99992.47;4970835;28;20097;-67
2022/09/13 12:03:40;;;;;;;2.30;1.98;;;;;;;21.74;nan;99991.75;4970942;28;20504;-68
2022/09/13 12:06:35;;;;;;;;;;;;;;;21.66;nan;99983.22;4969873;28;20455;-68